Time;durP1;ratioP1;P1;durP2;ratioP2;P2;SDS_P1;SDS_P2;PMS_P1;PMS_P2;Temp;Humidity;BMP_temperature;BMP_pressure;BME280_temperature;BME280_humidity;BME280_pressure;Samples;Min_cycle;Max_cycle;Signal;HPM_P1;HPM_P2
2022/04/05 00:02:10;;;;;;;11.30;10.20;;;;;;;4.77;100.00;97973.88;5071143;28;20028;-77
2022/04/05 00:04:35;;;;;;;12.05;10.85;;;;;;;4.85;100.00;97976.06;5071164;28;20051;-77
2022/04/05 00:07:01;;;;;;;11.75;10.70;;;;;;;4.85;100.00;97976.06;5071356;28;20058;-76
2022/04/05 00:09:27;;;;;;;11.18;10.18;;;;;;;4.84;100.00;97971.81;5071061;28;20544;-77
2022/04/05 00:11:52;;;;;;;11.15;10.05;;;;;;;4.88;100.00;97974.16;5071526;28;20064;-77
2022/04/05 00:14:18;;;;;;;11.95;10.75;;;;;;;4.90;100.00;97982.66;5070850;28;20425;-77
2022/04/05 00:16:43;;;;;;;11.52;10.43;;;;;;;4.88;100.00;97976.72;5071113;28;20078;-77
2022/04/05 00:19:08;;;;;;;11.15;10.05;;;;;;;4.90;100.00;97984.41;5073429;28;20495;-77
2022/04/05 00:21:34;;;;;;;11.07;10.05;;;;;;;4.90;100.00;97972.34;5074650;28;20085;-77
2022/04/05 00:24:00;;;;;;;11.45;10.45;;;;;;;4.93;100.00;97972.19;5056801;28;20036;-77
2022/04/05 00:26:25;;;;;;;11.93;10.73;;;;;;;4.91;100.00;97949.97;5056577;28;20083;-76
2022/04/05 00:28:50;;;;;;;11.32;10.25;;;;;;;4.91;100.00;97957.69;5074616;28;20413;-76
2022/04/05 00:31:16;;;;;;;11.68;10.57;;;;;;;4.98;100.00;97980.53;5074345;28;20051;-77
2022/04/05 00:33:41;;;;;;;12.55;11.25;;;;;;;5.02;100.00;97968.31;5074424;28;20081;-77
2022/04/05 00:36:06;;;;;;;12.45;11.20;;;;;;;5.03;100.00;97972.56;5074499;28;20025;-76
2022/04/05 00:38:32;;;;;;;10.73;9.73;;;;;;;5.03;100.00;97957.06;5074165;28;20033;-76
2022/04/05 00:40:57;;;;;;;12.15;10.95;;;;;;;5.03;100.00;97964.81;5074438;28;20456;-77
2022/04/05 00:43:23;;;;;;;12.07;10.88;;;;;;;5.00;100.00;97950.31;5074152;28;20101;-77
2022/04/05 00:45:48;;;;;;;11.82;10.73;;;;;;;5.04;100.00;97952.75;5074303;28;20028;-77
2022/04/05 00:48:28;;;;;;;13.23;10.30;;;;;;;5.02;100.00;97945.09;5074054;28;20435;-77
2022/04/05 00:50:53;;;;;;;11.00;9.95;;;;;;;5.03;100.00;97945.94;5074477;28;20024;-77
2022/04/05 00:53:21;;;;;;;10.40;9.40;;;;;;;5.02;100.00;97945.09;5074073;28;20106;-77
2022/04/05 00:55:48;;;;;;;11.20;10.10;;;;;;;5.06;100.00;97945.78;5074170;28;20039;-77
2022/04/05 00:58:15;;;;;;;10.82;9.80;;;;;;;5.08;100.00;97947.34;5073802;28;20035;-77
2022/04/05 01:00:41;;;;;;;13.15;10.80;;;;;;;5.08;100.00;97920.72;5073968;28;20453;-77
2022/04/05 01:03:06;;;;;;;12.07;10.90;;;;;;;5.07;100.00;97937.13;5056198;28;20029;-78
2022/04/05 01:05:33;;;;;;;10.35;9.30;;;;;;;5.10;100.00;97942.09;5073593;28;20051;-78
2022/04/05 01:08:02;;;;;;;10.15;9.20;;;;;;;5.12;100.00;97935.97;5055934;28;20109;-77
2022/04/05 01:10:29;;;;;;;14.48;10.55;;;;;;;5.14;100.00;97944.47;5073646;28;20029;-76
2022/04/05 01:12:54;;;;;;;11.50;10.15;;;;;;;5.12;100.00;97935.13;5055707;28;20382;-77
2022/04/05 01:15:20;;;;;;;10.82;9.82;;;;;;;5.07;100.00;97922.47;5073480;28;20103;-77
2022/04/05 01:17:46;;;;;;;10.32;9.43;;;;;;;5.13;100.00;97926.47;5056270;28;20029;-77
2022/04/05 01:20:11;;;;;;;11.27;10.20;;;;;;;5.11;100.00;97936.03;5073873;28;20021;-77
2022/04/05 01:22:48;;;;;;;10.95;9.95;;;;;;;5.15;100.00;97942.72;5073519;28;20024;-77
2022/04/05 01:25:18;;;;;;;12.82;11.60;;;;;;;5.11;100.00;97934.28;5073583;28;20029;-77
2022/04/05 01:27:44;;;;;;;11.00;10.00;;;;;;;5.12;100.00;97933.38;5073420;28;20025;-77
2022/04/05 01:30:10;;;;;;;11.85;10.70;;;;;;;5.01;100.00;97920.19;5055056;28;20472;-76
2022/04/05 01:32:39;;;;;;;11.27;10.20;;;;;;;5.07;100.00;97948.28;5073277;28;20028;-77
2022/04/05 01:35:06;;;;;;;11.85;10.65;;;;;;;5.13;100.00;97940.19;5073522;28;20055;-77
2022/04/05 01:37:32;;;;;;;11.20;10.20;;;;;;;5.09;100.00;97943.84;5073134;28;20040;-77
2022/04/05 01:39:58;;;;;;;12.48;11.27;;;;;;;5.05;100.00;97926.84;5073236;28;20050;-76
2022/04/05 01:42:23;;;;;;;11.90;10.80;;;;;;;5.10;100.00;97939.50;5072866;28;20024;-76
2022/04/05 01:44:49;;;;;;;11.23;10.23;;;;;;;5.14;100.00;97948.75;5055463;28;20055;-77
2022/04/05 01:47:16;;;;;;;11.73;10.60;;;;;;;5.05;100.00;97934.59;5073231;28;20033;-76
2022/04/05 01:49:44;;;;;;;12.20;11.00;;;;;;;5.13;100.00;97936.78;5069345;28;20047;-76
2022/04/05 01:52:10;;;;;;;11.55;10.48;;;;;;;5.14;100.00;97941.88;5073056;28;20067;-76
2022/04/05 01:54:37;;;;;;;10.65;9.57;;;;;;;5.05;100.00;97936.34;5072741;28;20021;-77
2022/04/05 01:57:03;;;;;;;10.18;9.27;;;;;;;5.08;100.00;97939.59;5072802;28;20039;-76
2022/04/05 01:59:31;;;;;;;10.50;9.52;;;;;;;5.10;100.00;97926.59;5054850;28;20460;-76
2022/04/05 02:01:56;;;;;;;10.75;9.75;;;;;;;5.18;100.00;97947.69;5072939;28;20024;-76
2022/04/05 02:04:22;;;;;;;11.25;10.25;;;;;;;5.18;100.00;97939.94;5072439;28;20375;-76
2022/04/05 02:06:49;;;;;;;11.15;10.15;;;;;;;5.01;100.00;97915.03;5072748;28;20042;-76
2022/04/05 02:09:16;;;;;;;11.38;10.35;;;;;;;5.15;100.00;97922.91;5054605;28;20036;-76
2022/04/05 02:11:44;;;;;;;11.20;10.10;;;;;;;5.12;100.00;97930.78;5072328;28;20037;-77
2022/04/05 02:14:11;;;;;;;11.00;10.00;;;;;;;5.13;100.00;97927.28;5072747;28;20040;-77
2022/04/05 02:16:36;;;;;;;11.43;10.20;;;;;;;5.06;100.00;97917.41;5072724;28;20388;-78
2022/04/05 02:19:02;;;;;;;10.65;9.70;;;;;;;5.13;100.00;97916.97;5072559;28;20054;-77
2022/04/05 02:21:27;;;;;;;10.30;9.40;;;;;;;5.18;100.00;97935.66;5072349;28;20529;-78
2022/04/05 02:23:53;;;;;;;10.48;9.52;;;;;;;5.05;100.00;97906.22;5072707;28;20033;-77
2022/04/05 02:26:18;;;;;;;11.50;10.50;;;;;;;5.16;100.00;97927.13;5054259;28;20563;-78
2022/04/05 02:28:43;;;;;;;10.88;9.88;;;;;;;5.16;100.00;97926.31;5054572;28;20024;-77
2022/04/05 02:31:09;;;;;;;11.48;10.38;;;;;;;5.13;100.00;97923.88;5072518;28;20081;-78
2022/04/05 02:33:35;;;;;;;9.95;9.00;;;;;;;5.17;100.00;97926.22;5072148;28;20029;-78
2022/04/05 02:36:00;;;;;;;10.68;9.68;;;;;;;5.17;100.00;97928.81;5072235;28;20687;-77
2022/04/05 02:38:26;;;;;;;11.52;10.43;;;;;;;5.21;100.00;97929.47;5071928;28;20060;-78
2022/04/05 02:40:52;;;;;;;10.25;9.15;;;;;;;5.19;100.00;97923.56;5071748;28;20039;-78
2022/04/05 02:43:18;;;;;;;9.93;9.00;;;;;;;5.20;100.00;97920.06;5071621;28;20032;-78
2022/04/05 02:45:44;;;;;;;10.02;9.13;;;;;;;5.17;100.00;97923.63;5071950;28;20064;-78
2022/04/05 02:48:09;;;;;;;10.75;9.75;;;;;;;5.19;100.00;97919.25;5053966;28;20167;-78
2022/04/05 02:50:35;;;;;;;10.13;9.23;;;;;;;5.18;100.00;97919.31;5071795;28;20077;-77
2022/04/05 02:53:00;;;;;;;9.77;8.88;;;;;;;5.10;100.00;97904.25;5054043;28;20387;-77
2022/04/05 02:55:26;;;;;;;10.15;9.15;;;;;;;5.15;100.00;97904.84;5053658;28;20021;-77
2022/04/05 02:57:52;;;;;;;9.80;8.65;;;;;;;5.09;100.00;97906.88;5072040;28;20028;-76
2022/04/05 03:00:17;;;;;;;10.23;9.23;;;;;;;5.14;100.00;97908.34;5072260;28;20031;-77
2022/04/05 03:02:44;;;;;;;9.45;8.55;;;;;;;5.16;100.00;97916.81;5071708;28;20079;-77
2022/04/05 03:05:10;;;;;;;9.15;8.25;;;;;;;5.20;100.00;97933.81;5071749;28;20060;-77
2022/04/05 03:07:40;;;;;;;9.52;8.65;;;;;;;5.20;100.00;97912.34;5053475;28;20031;-77
2022/04/05 03:10:11;;;;;;;9.95;9.05;;;;;;;5.23;100.00;97927.66;5071694;28;20027;-77
2022/04/05 03:12:37;;;;;;;10.30;9.30;;;;;;;5.14;100.00;97915.22;5071813;28;20086;-77
2022/04/05 03:15:04;;;;;;;9.55;8.65;;;;;;;5.11;100.00;97911.06;5071913;28;20293;-77
2022/04/05 03:17:29;;;;;;;9.57;8.68;;;;;;;5.20;100.00;97920.06;5071592;28;20090;-77
2022/04/05 03:19:55;;;;;;;9.60;8.65;;;;;;;5.19;100.00;97918.41;5071827;28;20040;-78
2022/04/05 03:22:20;;;;;;;9.55;8.65;;;;;;;5.18;100.00;97916.72;5071725;28;20024;-77
2022/04/05 03:24:46;;;;;;;9.88;8.98;;;;;;;5.15;100.00;97922.91;5053657;28;20032;-77
2022/04/05 03:27:11;;;;;;;10.57;9.57;;;;;;;5.17;100.00;97917.66;5071650;28;20032;-77
2022/04/05 03:29:37;;;;;;;9.35;8.45;;;;;;;5.19;100.00;97919.25;5053259;28;20113;-77
2022/04/05 03:32:03;;;;;;;10.05;9.00;;;;;;;5.11;100.00;97899.91;5071714;28;20099;-78
2022/04/05 03:34:29;;;;;;;9.48;8.65;;;;;;;5.21;100.00;97922.56;5071450;28;20028;-77
2022/04/05 03:36:55;;;;;;;8.95;8.15;;;;;;;5.17;100.00;97912.47;5071570;28;20020;-77
2022/04/05 03:39:20;;;;;;;8.75;7.97;;;;;;;5.19;100.00;97926.16;5071488;28;20040;-77
2022/04/05 03:41:46;;;;;;;8.43;7.72;;;;;;;5.20;100.00;97920.06;5071551;28;20070;-78
2022/04/05 03:44:12;;;;;;;9.80;8.80;;;;;;;5.18;100.00;97922.75;5053808;28;20024;-77
2022/04/05 03:46:37;;;;;;;8.65;7.85;;;;;;;5.16;100.00;97918.56;5071350;28;20033;-77
2022/04/05 03:49:04;;;;;;;7.90;7.20;;;;;;;5.08;100.00;97905.22;5071346;28;20036;-77
2022/04/05 03:51:29;;;;;;;8.18;7.47;;;;;;;5.12;100.00;97912.72;5071253;28;20029;-77
2022/04/05 03:53:56;;;;;;;8.93;8.13;;;;;;;5.10;100.00;97922.31;5073588;28;20498;-77
2022/04/05 03:56:22;;;;;;;8.25;7.55;;;;;;;5.11;100.00;97920.56;5057518;28;20182;-77
2022/04/05 03:58:47;;;;;;;8.70;7.90;;;;;;;5.10;100.00;97919.72;5075204;28;20504;-77
2022/04/05 04:01:13;;;;;;;8.23;7.50;;;;;;;5.08;100.00;97920.72;5057290;28;20096;-78
2022/04/05 04:03:38;;;;;;;8.07;7.38;;;;;;;5.08;100.00;97925.88;5074976;28;20033;-77
2022/04/05 04:06:04;;;;;;;8.40;7.70;;;;;;;5.07;100.00;97913.88;5075210;28;20024;-77
2022/04/05 04:08:29;;;;;;;8.02;7.30;;;;;;;5.08;100.00;97918.13;5074721;28;20033;-77
2022/04/05 04:10:55;;;;;;;8.35;7.55;;;;;;;5.09;100.00;97919.78;5075245;28;20028;-77
2022/04/05 04:13:20;;;;;;;8.90;8.00;;;;;;;5.01;100.00;97909.88;5075121;28;20024;-77
2022/04/05 04:15:46;;;;;;;8.13;7.32;;;;;;;5.07;100.00;97919.88;5074809;28;20048;-78
2022/04/05 04:18:11;;;;;;;7.43;6.72;;;;;;;5.06;100.00;97927.72;5074969;28;20028;-77
2022/04/05 04:20:42;;;;;;;7.93;7.22;;;;;;;5.01;100.00;97925.34;5056681;28;20021;-77
2022/04/05 04:23:08;;;;;;;7.57;6.93;;;;;;;4.92;100.00;97912.94;5075075;28;20131;-77
2022/04/05 04:25:34;;;;;;;8.18;7.45;;;;;;;5.03;100.00;97935.59;5056754;28;20091;-77
2022/04/05 04:28:00;;;;;;;7.80;7.10;;;;;;;5.07;100.00;97947.44;5074700;28;20357;-77
2022/04/05 04:30:25;;;;;;;13.55;8.35;;;;;;;5.04;100.00;97947.59;5074557;28;20067;-77
2022/04/05 04:32:51;;;;;;;7.95;7.22;;;;;;;4.98;100.00;97934.09;5074708;28;20064;-77
2022/04/05 04:35:16;;;;;;;8.18;7.47;;;;;;;5.02;100.00;97947.69;5074437;28;20519;-78
2022/04/05 04:37:42;;;;;;;7.97;7.28;;;;;;;5.00;100.00;97946.91;5074433;28;20028;-77
2022/04/05 04:40:08;;;;;;;8.55;7.75;;;;;;;4.94;100.00;97939.50;5031998;28;20060;-77
2022/04/05 04:42:33;;;;;;;8.32;7.60;;;;;;;4.94;100.00;97942.91;5031862;28;20042;-77
2022/04/05 04:45:00;;;;;;;9.13;8.32;;;;;;;4.95;100.00;97946.31;5032049;28;20037;-77
2022/04/05 04:47:25;;;;;;;8.02;7.35;;;;;;;4.93;100.00;97948.13;5032100;28;20029;-77
2022/04/05 04:49:50;;;;;;;8.30;7.60;;;;;;;4.86;100.00;97946.78;5031442;28;20127;-77
2022/04/05 04:52:16;;;;;;;8.93;8.13;;;;;;;4.90;100.00;97946.56;5032057;28;20025;-77
2022/04/05 04:54:41;;;;;;;7.72;7.05;;;;;;;4.88;100.00;97957.84;5031719;28;20128;-77
2022/04/05 04:57:06;;;;;;;7.97;7.28;;;;;;;4.81;100.00;97948.78;5032075;28;20450;-77
2022/04/05 04:59:32;;;;;;;8.32;7.63;;;;;;;4.84;100.00;97948.59;5031652;28;20042;-77
2022/04/05 05:01:57;;;;;;;7.35;6.70;;;;;;;4.83;100.00;97950.34;5031826;28;20025;-77
2022/04/05 05:04:23;;;;;;;7.03;6.43;;;;;;;4.79;100.00;97946.25;5030787;28;20517;-77
2022/04/05 05:06:48;;;;;;;7.82;7.05;;;;;;;4.84;100.00;97946.00;5014689;28;20037;-76
2022/04/05 05:09:14;;;;;;;7.40;6.80;;;;;;;4.88;100.00;97960.44;5031656;28;20029;-77
2022/04/05 05:11:39;;;;;;;9.07;7.45;;;;;;;4.88;100.00;97966.41;5061998;28;20036;-76
2022/04/05 05:14:04;;;;;;;8.10;7.40;;;;;;;4.88;100.00;97968.16;5074033;28;20027;-77
2022/04/05 05:16:30;;;;;;;8.10;7.32;;;;;;;4.88;100.00;97973.31;5073662;28;20113;-77
2022/04/05 05:18:55;;;;;;;8.13;7.43;;;;;;;4.75;100.00;97950.72;5073736;28;20028;-76
2022/04/05 05:21:21;;;;;;;7.85;7.15;;;;;;;4.80;100.00;97965.97;5055642;28;20020;-76
2022/04/05 05:23:46;;;;;;;7.45;6.80;;;;;;;4.86;100.00;97978.56;5073588;28;20104;-76
2022/04/05 05:26:12;;;;;;;7.47;6.78;;;;;;;4.90;100.00;97974.09;5074058;28;20039;-77
2022/04/05 05:28:38;;;;;;;7.88;7.07;;;;;;;4.86;100.00;97977.75;5073373;28;20029;-77
2022/04/05 05:31:03;;;;;;;7.85;7.15;;;;;;;4.89;100.00;97981.00;5073535;28;20461;-77
2022/04/05 05:33:31;;;;;;;8.25;7.45;;;;;;;4.94;100.00;97991.09;5073483;28;20039;-76
2022/04/05 05:35:56;;;;;;;7.70;7.00;;;;;;;4.88;100.00;97981.06;5055706;28;20050;-77
2022/04/05 05:38:22;;;;;;;8.75;7.88;;;;;;;4.93;100.00;97990.25;5055423;28;20032;-76
2022/04/05 05:40:47;;;;;;;8.13;7.43;;;;;;;4.95;100.00;97995.34;5073233;28;20024;-76
2022/04/05 05:43:13;;;;;;;9.00;8.20;;;;;;;4.97;100.00;97990.91;5073115;28;20380;-77
2022/04/05 05:45:38;;;;;;;8.98;8.07;;;;;;;4.94;100.00;97993.66;5073067;28;20020;-78
2022/04/05 05:48:05;;;;;;;8.32;7.57;;;;;;;4.99;100.00;97996.84;5073037;28;20473;-78
2022/04/05 05:50:30;;;;;;;8.85;8.02;;;;;;;5.08;100.00;98011.03;5054951;28;20483;-77
2022/04/05 05:52:56;;;;;;;9.57;8.60;;;;;;;5.10;100.00;98009.19;5073258;28;20025;-78
2022/04/05 05:55:22;;;;;;;9.82;8.82;;;;;;;5.05;100.00;98004.25;5055157;28;20036;-78
2022/04/05 05:57:48;;;;;;;14.07;10.88;;;;;;;5.14;100.00;98021.88;5072837;28;20028;-76
2022/04/05 06:00:17;;;;;;;10.25;9.20;;;;;;;5.15;100.00;98025.31;5072919;28;20028;-78
2022/04/05 06:02:43;;;;;;;14.70;11.27;;;;;;;5.06;100.00;98008.53;5054761;28;20029;-78
2022/04/05 06:05:09;;;;;;;9.13;8.23;;;;;;;5.15;100.00;98020.13;5072750;28;20520;-76
2022/04/05 06:07:35;;;;;;;8.90;8.10;;;;;;;5.17;100.00;98031.19;5072778;28;20029;-77
2022/04/05 06:10:01;;;;;;;9.13;8.32;;;;;;;5.16;100.00;98035.53;5072901;28;20379;-78
2022/04/05 06:12:27;;;;;;;9.63;8.73;;;;;;;5.14;100.00;98010.69;5072925;28;20040;-78
2022/04/05 06:14:52;;;;;;;9.35;8.45;;;;;;;5.16;100.00;98030.38;5072636;28;20036;-77
2022/04/05 06:17:18;;;;;;;8.80;7.90;;;;;;;5.11;100.00;98028.94;5072639;28;20020;-77
2022/04/05 06:19:45;;;;;;;8.60;7.80;;;;;;;5.22;100.00;98044.72;5049670;28;20531;-77
2022/04/05 06:22:11;;;;;;;8.90;8.00;;;;;;;5.14;100.00;98033.94;5050197;28;20629;-78
2022/04/05 06:24:36;;;;;;;10.27;9.27;;;;;;;5.19;100.00;98037.13;5049926;28;20116;-77
2022/04/05 06:27:02;;;;;;;9.75;8.27;;;;;;;5.22;100.00;98048.16;5055212;28;20043;-78
2022/04/05 06:29:27;;;;;;;9.05;8.15;;;;;;;5.19;100.00;98034.56;5068435;28;20163;-78
2022/04/05 06:31:52;;;;;;;10.30;9.20;;;;;;;5.26;100.00;98052.22;5052910;28;20066;-77
2022/04/05 06:34:18;;;;;;;8.10;7.30;;;;;;;5.31;100.00;98061.47;5069804;28;20473;-77
2022/04/05 06:36:43;;;;;;;7.30;6.70;;;;;;;5.34;100.00;98069.06;5069650;28;20032;-77
2022/04/05 06:39:09;;;;;;;8.18;7.43;;;;;;;5.28;100.00;98035.84;5069884;28;20139;-77
2022/04/05 06:41:35;;;;;;;8.30;7.50;;;;;;;5.32;100.00;98051.09;5069656;28;20032;-77
2022/04/05 06:44:00;;;;;;;7.30;6.60;;;;;;;5.33;100.00;98041.59;5069794;28;20594;-77
2022/04/05 06:46:26;;;;;;;9.25;8.45;;;;;;;5.40;100.00;98061.03;5069730;28;20054;-77
2022/04/05 06:48:51;;;;;;;8.77;7.97;;;;;;;5.27;100.00;98050.50;5069334;28;20055;-77
2022/04/05 06:51:18;;;;;;;11.40;10.40;;;;;;;5.40;100.00;98061.84;5069709;28;20079;-77
2022/04/05 06:53:43;;;;;;;8.43;7.57;;;;;;;5.43;100.00;98073.75;5069447;28;20218;-77
2022/04/05 06:56:09;;;;;;;8.70;7.90;;;;;;;5.47;100.00;98072.69;5069868;28;20542;-77
2022/04/05 06:58:35;;;;;;;9.13;8.32;;;;;;;5.53;100.00;98074.16;5071813;28;20142;-77
2022/04/05 07:01:00;;;;;;;9.48;8.45;;;;;;;5.60;100.00;98088.38;5053812;28;20147;-77
2022/04/05 07:03:26;;;;;;;10.13;9.05;;;;;;;5.57;100.00;98079.06;5054184;28;20035;-76
2022/04/05 07:05:51;;;;;;;9.63;8.63;;;;;;;5.61;100.00;98098.66;5071760;28;20130;-77
2022/04/05 07:08:17;;;;;;;10.50;8.27;;;;;;;5.55;100.00;98093.78;5053910;28;20500;-77
2022/04/05 07:10:42;;;;;;;12.80;10.43;;;;;;;5.50;100.00;98069.97;5053667;28;20032;-78
2022/04/05 07:13:10;;;;;;;10.48;9.38;;;;;;;5.47;100.00;98077.84;5071900;28;20105;-77
2022/04/05 07:15:36;;;;;;;8.90;8.00;;;;;;;5.53;100.00;98100.81;5053553;28;20021;-77
2022/04/05 07:18:01;;;;;;;8.82;7.93;;;;;;;5.54;100.00;98097.31;5071769;28;20024;-77
2022/04/05 07:20:27;;;;;;;8.73;7.93;;;;;;;5.53;100.00;98108.56;5074089;28;20028;-77
2022/04/05 07:22:52;;;;;;;8.40;7.63;;;;;;;5.56;100.00;98117.88;5091231;28;20161;-77
2022/04/05 07:25:20;;;;;;;7.47;6.78;;;;;;;5.39;100.00;98116.13;5091198;28;20037;-76
2022/04/05 07:27:46;;;;;;;8.02;7.22;;;;;;;5.39;100.00;98113.56;5071709;28;20115;-76
2022/04/05 07:30:12;;;;;;;9.05;8.02;;;;;;;5.57;100.00;98127.31;5075657;28;20077;-77
2022/04/05 07:32:39;;;;;;;11.35;9.57;;;;;;;5.73;100.00;98120.41;5057485;28;20365;-77
2022/04/05 07:35:06;;;;;;;11.77;9.70;;;;;;;5.97;100.00;98126.94;5075851;28;20099;-76
2022/04/05 07:37:31;;;;;;;8.98;8.07;;;;;;;6.12;100.00;98112.41;5076052;28;20032;-77
2022/04/05 07:39:58;;;;;;;6.55;5.75;;;;;;;6.40;100.00;98113.47;5075531;28;20028;-76
2022/04/05 07:42:24;;;;;;;8.57;6.72;;;;;;;6.61;100.00;98129.59;5057685;28;20431;-77
2022/04/05 07:44:50;;;;;;;6.45;5.40;;;;;;;6.46;100.00;98124.34;5057342;28;20396;-77
2022/04/05 07:47:15;;;;;;;6.70;5.38;;;;;;;6.56;100.00;98122.09;5075422;28;20025;-76
2022/04/05 07:49:41;;;;;;;7.85;6.75;;;;;;;6.56;100.00;98110.91;5074998;28;20416;-77
2022/04/05 07:52:06;;;;;;;6.30;5.70;;;;;;;7.00;100.00;98122.22;5075888;28;20112;-76
2022/04/05 07:54:32;;;;;;;5.35;4.85;;;;;;;7.60;100.00;98125.69;5075489;28;20021;-76
2022/04/05 07:56:58;;;;;;;7.25;6.35;;;;;;;8.25;100.00;98131.28;5075171;28;20536;-76
2022/04/05 07:59:23;;;;;;;6.72;6.13;;;;;;;8.45;100.00;98132.66;5075207;28;20068;-77
2022/04/05 08:01:49;;;;;;;15.73;14.13;;;;;;;8.43;100.00;98132.78;5075262;28;20502;-77
2022/04/05 08:04:14;;;;;;;7.88;7.07;;;;;;;8.36;100.00;98138.41;5075252;28;20393;-76
2022/04/05 08:06:40;;;;;;;6.47;5.88;;;;;;;8.12;100.00;98138.97;5074853;28;20059;-77
2022/04/05 08:09:05;;;;;;;5.13;4.63;;;;;;;7.97;100.00;98152.88;5075180;28;20033;-77
2022/04/05 08:11:33;;;;;;;6.25;5.53;;;;;;;7.77;100.00;98145.44;5057078;28;20058;-76
2022/04/05 08:13:58;;;;;;;4.95;4.50;;;;;;;7.68;100.00;98149.41;5056708;28;20025;-76
2022/04/05 08:16:24;;;;;;;5.85;5.35;;;;;;;7.59;100.00;98147.38;5057259;28;20077;-77
2022/04/05 08:18:49;;;;;;;5.35;4.65;;;;;;;7.54;100.00;98160.56;5074674;28;20103;-76
2022/04/05 08:21:17;;;;;;;12.90;11.57;;;;;;;7.52;100.00;98162.41;5086546;28;20032;-76
2022/04/05 08:23:43;;;;;;;8.20;7.40;;;;;;;7.58;100.00;98175.00;5095121;28;20264;-75
2022/04/05 08:26:08;;;;;;;9.98;8.73;;;;;;;7.60;100.00;98165.41;5095125;28;20446;-76
2022/04/05 08:28:33;;;;;;;9.52;8.52;;;;;;;7.63;100.00;98159.22;5094883;28;20020;-76
2022/04/05 08:30:59;;;;;;;23.67;19.63;;;;;;;7.57;100.00;98168.16;5095086;28;20139;-77
2022/04/05 08:33:24;;;;;;;9.25;7.40;;;;;;;7.54;100.00;98162.31;5095231;28;20047;-77
2022/04/05 08:35:50;;;;;;;6.68;5.35;;;;;;;7.56;100.00;98173.44;5076654;28;20035;-77
2022/04/05 08:38:15;;;;;;;5.10;4.28;;;;;;;7.50;100.00;98172.88;5076737;28;20387;-77
2022/04/05 08:40:42;;;;;;;7.50;4.72;;;;;;;7.40;100.00;98181.25;5094709;28;20415;-77
2022/04/05 08:43:07;;;;;;;10.32;6.60;;;;;;;7.35;100.00;98170.31;5094636;28;20084;-77
2022/04/05 08:45:35;;;;;;;9.05;6.53;;;;;;;7.37;100.00;98184.84;5094586;28;20459;-77
2022/04/05 08:48:01;;;;;;;7.97;5.93;;;;;;;7.52;100.00;98193.50;5094605;28;20051;-77
2022/04/05 08:50:31;;;;;;;7.72;5.10;;;;;;;7.59;100.00;98186.22;5076573;28;20119;-77
2022/04/05 08:53:01;;;;;;;13.57;8.70;;;;;;;7.78;100.00;98192.00;5094711;28;20028;-77
2022/04/05 08:55:28;;;;;;;6.43;4.53;;;;;;;7.83;100.00;98194.31;5094641;28;20372;-77
2022/04/05 08:57:55;;;;;;;8.82;4.60;;;;;;;7.74;100.00;98188.75;5094178;28;20016;-77
2022/04/05 09:00:22;;;;;;;13.13;7.78;;;;;;;7.84;100.00;98183.88;5076442;28;20467;-77
2022/04/05 09:03:06;;;;;;;7.30;5.03;;;;;;;7.91;100.00;98185.16;5094287;28;20032;-77
2022/04/05 09:05:40;;;;;;;5.75;4.20;;;;;;;7.94;100.00;98210.06;5094474;28;20063;-77
2022/04/05 09:08:21;;;;;;;5.88;3.35;;;;;;;7.80;100.00;98195.34;5093941;28;20605;-77
2022/04/05 09:11:08;;;;;;;5.65;3.20;;;;;;;7.63;100.00;98190.31;5094257;28;20062;-77
2022/04/05 09:13:35;;;;;;;4.15;2.90;;;;;;;7.62;100.00;98202.41;5094368;28;20110;-77
2022/04/05 09:16:04;;;;;;;6.43;3.00;;;;;;;7.62;100.00;98192.03;5093957;28;20028;-77
2022/04/05 09:18:40;;;;;;;5.25;3.60;;;;;;;7.73;100.00;98194.03;5094092;28;20364;-77
2022/04/05 09:21:08;;;;;;;3.28;2.63;;;;;;;7.84;100.00;98196.00;5094019;28;20024;-77
2022/04/05 09:23:41;;;;;;;3.33;2.58;;;;;;;7.89;100.00;98199.16;5075996;28;20058;-77
2022/04/05 09:26:12;;;;;;;4.68;2.83;;;;;;;7.89;100.00;98199.16;5093772;28;20035;-77
2022/04/05 09:28:38;;;;;;;5.30;3.15;;;;;;;7.99;100.00;98202.84;5075679;28;20389;-77
2022/04/05 09:31:08;;;;;;;4.45;2.88;;;;;;;8.07;100.00;98189.44;5075417;28;20481;-77
2022/04/05 09:33:38;;;;;;;4.72;2.75;;;;;;;8.19;100.00;98193.91;5093958;28;20506;-77
2022/04/05 09:36:16;;;;;;;8.73;6.45;;;;;;;8.42;100.00;98203.72;5093625;28;20032;-78
2022/04/05 09:38:44;;;;;;;4.80;2.97;;;;;;;8.56;100.00;98194.28;5093800;28;20084;-77
2022/04/05 09:41:10;;;;;;;4.15;3.75;;;;;;;8.74;99.94;98191.38;5093795;28;20036;-77
2022/04/05 09:43:36;;;;;;;6.22;3.80;;;;;;;8.80;98.46;98191.91;5075526;28;20430;-77
2022/04/05 09:46:02;;;;;;;7.18;4.03;;;;;;;8.85;97.57;98198.50;5093623;28;20028;-77
2022/04/05 09:48:32;;;;;;;6.00;3.65;;;;;;;8.85;96.77;98198.50;5075198;28;20381;-77
2022/04/05 09:51:09;;;;;;;;;;;;;;;8.91;95.73;98213.69;5093281;28;20082;-77
2022/04/05 09:53:47;;;;;;;4.68;3.35;;;;;;;8.83;95.42;98210.75;5093530;28;19954;-77
2022/04/05 09:56:44;;;;;;;4.05;2.80;;;;;;;8.73;95.70;98217.44;5093349;28;20055;-77
2022/04/05 09:59:18;;;;;;;3.40;2.33;;;;;;;8.65;95.50;98219.69;4974808;28;20046;-77
2022/04/05 10:01:45;;;;;;;4.80;2.95;;;;;;;8.84;95.31;98219.34;4991288;28;20085;-78
2022/04/05 10:04:15;;;;;;;5.55;3.30;;;;;;;9.03;94.45;98230.28;4991063;28;20072;-76
2022/04/05 10:06:44;;;;;;;4.80;2.92;;;;;;;9.15;93.64;98224.31;4974952;28;20030;-75
2022/04/05 10:09:11;;;;;;;4.40;3.05;;;;;;;9.11;92.86;98216.81;4990455;28;20542;-78
2022/04/05 10:11:39;;;;;;;4.18;2.35;;;;;;;8.98;92.17;98209.78;4991348;28;20048;-78
2022/04/05 10:14:07;;;;;;;5.00;2.85;;;;;;;8.88;92.26;98218.25;4974585;28;20088;-78
2022/04/05 10:16:33;;;;;;;5.68;3.08;;;;;;;8.87;92.27;98235.59;4974613;28;20417;-77
2022/04/05 10:19:01;;;;;;;6.60;3.90;;;;;;;8.75;92.19;98247.56;4990625;28;20442;-78
2022/04/05 10:21:28;;;;;;;5.72;4.20;;;;;;;8.58;92.82;98237.38;4974513;28;20450;-76
2022/04/05 10:23:56;;;;;;;9.80;5.38;;;;;;;8.47;93.32;98224.25;4990810;28;20030;-78
2022/04/05 10:26:30;;;;;;;20.65;15.27;;;;;;;8.57;93.59;98227.09;4990898;28;20034;-78
2022/04/05 10:28:58;;;;;;;6.60;4.95;;;;;;;8.52;93.10;98227.38;4991174;28;20050;-78
2022/04/05 10:31:32;;;;;;;15.32;9.15;;;;;;;8.53;92.58;98215.25;4992141;28;20091;-78
2022/04/05 10:34:30;;;;;;;7.10;4.90;;;;;;;8.66;93.38;98237.75;4988391;28;20391;-77
2022/04/05 10:37:18;;;;;;;8.45;4.03;;;;;;;8.78;91.97;98240.53;5076881;28;20082;-78
2022/04/05 10:40:04;;;;;;;15.05;6.38;;;;;;;8.93;91.13;98229.16;5072172;28;20021;-76
2022/04/05 10:42:35;;;;;;;10.27;7.95;;;;;;;8.97;90.23;98223.72;4951483;29;20054;-76
2022/04/05 10:45:11;;;;;;;14.52;10.65;;;;;;;9.21;89.85;98226.50;4951491;29;20031;-77
2022/04/05 10:47:59;;;;;;;9.55;5.65;;;;;;;9.55;89.93;98228.69;4951494;29;20047;-77
2022/04/05 10:50:25;;;;;;;11.35;6.47;;;;;;;9.62;87.75;98227.38;4955137;28;20023;-77
2022/04/05 10:53:14;;;;;;;12.00;6.30;;;;;;;9.83;87.94;98241.56;4970653;28;20093;-77
2022/04/05 10:56:10;;;;;;;15.77;9.18;;;;;;;10.02;86.58;98254.16;4971016;28;20041;-77
2022/04/05 10:59:05;;;;;;;9.50;4.78;;;;;;;10.14;84.75;98244.72;4970856;28;20112;-76
2022/04/05 11:01:45;;;;;;;6.80;4.03;;;;;;;10.24;83.26;98241.44;4970986;28;20030;-77
2022/04/05 11:04:14;;;;;;;6.85;4.22;;;;;;;10.29;82.91;98242.91;4969995;28;20471;-77
2022/04/05 11:06:58;;;;;;;8.38;5.55;;;;;;;10.09;83.01;98242.41;4970707;28;20097;-76
2022/04/05 11:09:53;;;;;;;11.35;5.57;;;;;;;10.01;82.13;98239.50;4951617;28;20043;-77
2022/04/05 11:12:30;;;;;;;10.35;6.28;;;;;;;9.86;81.25;98241.38;4913274;29;20040;-76
2022/04/05 11:15:03;;;;;;;12.35;5.75;;;;;;;9.59;81.34;98230.16;4913021;29;20079;-77
2022/04/05 11:17:29;;;;;;;11.43;6.95;;;;;;;9.36;82.55;98242.88;4913152;29;20076;-77
2022/04/05 11:19:57;;;;;;;7.53;4.15;;;;;;;9.03;82.20;98237.22;4985426;28;20053;-76
2022/04/05 11:22:23;;;;;;;9.07;4.20;;;;;;;8.90;83.16;98260.53;5029173;28;20041;-76
2022/04/05 11:25:03;;;;;;;10.02;5.97;;;;;;;8.86;84.82;98259.06;5029243;28;20033;-77
2022/04/05 11:27:45;;;;;;;12.07;6.77;;;;;;;8.93;86.46;98270.72;5028803;28;20087;-77
2022/04/05 11:30:22;;;;;;;7.75;3.90;;;;;;;8.92;86.13;98263.84;5029023;28;20775;-78
2022/04/05 11:33:09;;;;;;;8.30;3.45;;;;;;;8.94;85.64;98254.22;5029294;28;20029;-76